createdAt,value
2018-09-09T00:00:49.904Z,16.32
2018-09-09T00:03:18.173Z,16.29
2018-09-09T00:05:46.433Z,16.28
2018-09-09T00:08:14.719Z,16.28
2018-09-09T00:10:43.044Z,16.19
2018-09-09T00:13:11.288Z,16.24
2018-09-09T00:15:39.521Z,16.15
2018-09-09T00:18:07.797Z,16.26
2018-09-09T00:20:36.057Z,16.18
2018-09-09T00:23:04.353Z,16.09
2018-09-09T00:25:32.798Z,16.01
2018-09-09T00:28:01.093Z,16.04
2018-09-09T00:30:29.345Z,16.12
2018-09-09T00:32:57.658Z,16.15
2018-09-09T00:35:25.905Z,16.25
2018-09-09T00:37:54.177Z,16.16
2018-09-09T00:40:22.421Z,16.20
2018-09-09T00:42:50.713Z,16.23
2018-09-09T00:45:18.989Z,16.19
2018-09-09T00:47:47.277Z,16.21
2018-09-09T00:50:20.849Z,16.18
2018-09-09T00:52:54.507Z,16.23
2018-09-09T00:55:22.751Z,16.04
2018-09-09T00:57:51.066Z,16.08
2018-09-09T01:00:26.470Z,16.12
2018-09-09T01:02:54.866Z,16.18
2018-09-09T01:05:23.133Z,16.08
2018-09-09T01:07:51.461Z,16.11
2018-09-09T01:10:19.717Z,16.05
2018-09-09T01:12:47.973Z,16.02
2018-09-09T01:15:16.248Z,15.96
2018-09-09T01:17:44.509Z,16.09
2018-09-09T01:20:12.798Z,16.17
2018-09-09T01:22:41.059Z,16.17
2018-09-09T01:25:09.335Z,16.19
2018-09-09T01:27:37.585Z,16.11
2018-09-09T01:30:05.912Z,16.04
2018-09-09T01:32:34.152Z,16.13
2018-09-09T01:35:02.423Z,15.97
2018-09-09T01:37:30.673Z,15.84
2018-09-09T01:39:58.949Z,15.78
2018-09-09T01:42:27.208Z,15.74
2018-09-09T01:44:55.476Z,15.62
2018-09-09T01:47:23.723Z,15.60
2018-09-09T01:49:52.185Z,15.68
2018-09-09T01:52:20.422Z,15.63
2018-09-09T01:54:49.695Z,15.60
2018-09-09T01:57:17.975Z,15.50
2018-09-09T01:59:46.245Z,15.59
2018-09-09T02:02:14.532Z,15.55
2018-09-09T02:04:42.788Z,15.58
2018-09-09T02:07:11.064Z,15.52
2018-09-09T02:09:39.313Z,15.56
2018-09-09T02:12:07.591Z,15.53
2018-09-09T02:14:35.836Z,15.57
2018-09-09T02:17:04.141Z,15.47
2018-09-09T02:19:32.409Z,15.45
2018-09-09T02:22:00.753Z,15.38
2018-09-09T02:24:29.242Z,15.32
2018-09-09T02:26:57.561Z,15.25
2018-09-09T02:29:25.816Z,15.38
2018-09-09T02:31:54.097Z,15.37
2018-09-09T02:34:22.371Z,15.38
2018-09-09T02:36:50.688Z,15.34
2018-09-09T02:39:18.944Z,15.34
2018-09-09T02:41:47.286Z,15.25
2018-09-09T02:44:15.626Z,15.20
2018-09-09T02:46:43.881Z,15.26
2018-09-09T02:49:12.179Z,15.23
2018-09-09T02:51:41.525Z,15.13
2018-09-09T02:54:09.817Z,15.06
2018-09-09T02:56:38.091Z,15.01
2018-09-09T02:59:06.389Z,14.98
2018-09-09T03:01:34.700Z,14.93
2018-09-09T03:04:02.986Z,14.82
2018-09-09T03:06:31.279Z,14.87
2018-09-09T03:08:59.573Z,14.99
2018-09-09T03:11:27.841Z,14.79
2018-09-09T03:13:56.181Z,14.78
2018-09-09T03:16:24.449Z,14.95
2018-09-09T03:18:52.801Z,14.94
2018-09-09T03:21:21.190Z,14.96
2018-09-09T03:23:49.485Z,15.00
2018-09-09T03:26:17.738Z,14.95
2018-09-09T03:28:46.098Z,14.76
2018-09-09T03:31:14.393Z,14.89
2018-09-09T03:33:42.693Z,14.78
2018-09-09T03:36:10.947Z,14.88
2018-09-09T03:38:39.265Z,14.97
2018-09-09T03:41:08.545Z,14.98
2018-09-09T03:43:36.817Z,15.03
2018-09-09T03:46:05.226Z,15.16
2018-09-09T03:48:33.493Z,15.14
2018-09-09T03:51:02.885Z,15.17
2018-09-09T03:53:31.175Z,15.14
2018-09-09T03:55:59.469Z,15.22
2018-09-09T03:58:27.732Z,15.25
2018-09-09T04:00:56.064Z,15.25
2018-09-09T04:03:24.358Z,15.33
2018-09-09T04:05:52.689Z,15.23
2018-09-09T04:08:20.973Z,15.22
2018-09-09T04:10:49.316Z,15.20
2018-09-09T04:13:17.593Z,15.22
2018-09-09T04:15:45.893Z,15.08
2018-09-09T04:18:15.272Z,14.99
2018-09-09T04:20:43.637Z,14.97
2018-09-09T04:23:11.907Z,15.07
2018-09-09T04:25:40.217Z,15.11
2018-09-09T04:28:08.481Z,15.19
2018-09-09T04:30:36.761Z,15.19
2018-09-09T04:33:05.061Z,15.12
2018-09-09T04:35:33.321Z,15.08
2018-09-09T04:38:01.616Z,15.49
2018-09-09T04:40:29.929Z,15.29
2018-09-09T04:42:58.267Z,15.34
2018-09-09T04:45:26.529Z,15.32
2018-09-09T04:47:54.820Z,15.41
2018-09-09T04:50:24.001Z,15.46
2018-09-09T04:52:52.293Z,15.44
2018-09-09T04:55:20.567Z,15.38
2018-09-09T04:57:49.941Z,15.43
2018-09-09T05:00:18.231Z,15.51
2018-09-09T05:02:46.573Z,15.61
2018-09-09T05:05:14.929Z,15.67
2018-09-09T05:07:43.225Z,15.70
2018-09-09T05:10:11.544Z,15.69
2018-09-09T05:12:40.137Z,15.61
2018-09-09T05:15:08.405Z,15.67
2018-09-09T05:17:36.720Z,15.80
2018-09-09T05:20:05.230Z,15.85
2018-09-09T05:22:33.641Z,15.93
2018-09-09T05:25:01.918Z,16.00
2018-09-09T05:27:30.400Z,15.94
2018-09-09T05:29:58.702Z,15.84
2018-09-09T05:32:27.004Z,15.90
2018-09-09T05:34:55.553Z,15.80
2018-09-09T05:37:23.838Z,15.95
2018-09-09T05:39:52.136Z,15.95
2018-09-09T05:42:20.452Z,16.02
2018-09-09T05:44:48.780Z,16.07
2018-09-09T05:47:18.015Z,16.09
2018-09-09T05:49:47.313Z,16.01
2018-09-09T05:52:15.589Z,16.18
2018-09-09T05:54:43.905Z,16.34
2018-09-09T05:57:12.181Z,16.29
2018-09-09T05:59:40.504Z,16.33
2018-09-09T06:02:09.895Z,16.30
2018-09-09T06:04:38.192Z,16.39
2018-09-09T06:07:06.797Z,16.38
2018-09-09T06:09:35.097Z,16.30
2018-09-09T06:12:03.410Z,16.19
2018-09-09T06:14:31.796Z,16.35
2018-09-09T06:17:00.098Z,16.23
2018-09-09T06:19:28.408Z,16.16
2018-09-09T06:21:56.729Z,16.30
2018-09-09T06:24:25.035Z,16.32
2018-09-09T06:26:53.329Z,16.41
2018-09-09T06:29:21.591Z,16.46
2018-09-09T06:31:49.913Z,16.28
2018-09-09T06:34:18.189Z,16.54
2018-09-09T06:36:46.512Z,16.62
2018-09-09T06:39:14.793Z,16.58
2018-09-09T06:41:43.105Z,16.83
2018-09-09T06:44:11.469Z,16.77
2018-09-09T06:46:39.784Z,16.77
2018-09-09T06:49:08.393Z,16.75
2018-09-09T06:51:36.681Z,16.83
2018-09-09T06:54:04.989Z,16.87
2018-09-09T06:56:33.554Z,16.96
2018-09-09T06:59:02.113Z,16.86
2018-09-09T07:01:30.737Z,17.01
2018-09-09T07:04:02.235Z,17.24
2018-09-09T07:06:30.534Z,16.99
2018-09-09T07:08:58.791Z,17.33
2018-09-09T07:11:27.225Z,16.87
2018-09-09T07:13:55.409Z,16.83
2018-09-09T07:16:23.732Z,17.14
2018-09-09T07:18:52.029Z,17.16
2018-09-09T07:21:20.310Z,17.47
2018-09-09T07:23:48.620Z,17.26
2018-09-09T07:26:17.945Z,17.44
2018-09-09T07:28:46.273Z,17.14
2018-09-09T07:31:14.615Z,17.40
2018-09-09T07:33:42.881Z,17.66
2018-09-09T07:36:12.248Z,17.48
2018-09-09T07:38:40.548Z,17.83
2018-09-09T07:41:08.817Z,17.79
2018-09-09T07:43:37.104Z,17.73
2018-09-09T07:46:05.385Z,17.81
2018-09-09T07:48:33.718Z,17.88
2018-09-09T07:51:02.007Z,17.83
2018-09-09T07:53:30.413Z,17.82
2018-09-09T07:55:58.718Z,17.63
2018-09-09T07:58:27.078Z,17.42
2018-09-09T08:00:55.353Z,17.71
2018-09-09T08:03:23.698Z,17.75
2018-09-09T08:05:52.014Z,17.89
2018-09-09T08:08:20.286Z,17.59
2018-09-09T08:10:48.661Z,17.78
2018-09-09T08:13:16.959Z,17.66
2018-09-09T08:15:45.270Z,17.35
2018-09-09T08:18:13.559Z,17.49
2018-09-09T08:20:41.845Z,17.44
2018-09-09T08:23:10.233Z,17.68
2018-09-09T08:25:38.538Z,17.66
2018-09-09T08:28:06.866Z,17.69
2018-09-09T08:30:35.192Z,18.05
2018-09-09T08:33:03.463Z,18.23
2018-09-09T08:35:31.785Z,17.94
2018-09-09T08:38:00.062Z,18.17
2018-09-09T08:40:28.374Z,18.40
2018-09-09T08:42:56.706Z,18.87
2018-09-09T08:45:25.065Z,19.36
2018-09-09T08:47:53.313Z,19.84
2018-09-09T08:50:22.638Z,19.85
2018-09-09T08:52:50.930Z,19.84
2018-09-09T08:55:20.357Z,19.40
2018-09-09T08:57:48.655Z,19.22
2018-09-09T09:00:16.985Z,19.48
2018-09-09T09:02:45.285Z,19.17
2018-09-09T09:05:13.580Z,19.13
2018-09-09T09:07:43.055Z,18.82
2018-09-09T09:10:11.264Z,18.95
2018-09-09T09:12:39.579Z,19.13
2018-09-09T09:15:07.885Z,19.14
2018-09-09T09:17:36.209Z,19.45
2018-09-09T09:20:04.576Z,19.57
2018-09-09T09:22:32.897Z,19.83
2018-09-09T09:25:01.177Z,19.50
2018-09-09T09:27:29.482Z,19.80
2018-09-09T09:29:58.720Z,19.66
2018-09-09T09:32:27.058Z,19.75
2018-09-09T09:34:56.198Z,19.61
2018-09-09T09:37:25.513Z,20.06
2018-09-09T09:39:54.805Z,20.15
2018-09-09T09:42:23.548Z,20.54
2018-09-09T09:44:51.860Z,20.37
2018-09-09T09:47:20.157Z,20.20
2018-09-09T09:49:48.414Z,20.41
2018-09-09T09:52:16.743Z,20.46
2018-09-09T09:54:45.033Z,19.96
2018-09-09T09:57:14.401Z,19.96
2018-09-09T09:59:42.694Z,20.19
2018-09-09T10:02:10.991Z,19.97
2018-09-09T10:04:39.306Z,20.52
2018-09-09T10:07:07.593Z,20.39
2018-09-09T10:09:35.985Z,20.47
2018-09-09T10:12:04.303Z,20.63
2018-09-09T10:14:33.660Z,21.12
2018-09-09T10:17:02.112Z,21.25
2018-09-09T10:19:30.424Z,21.04
2018-09-09T10:22:01.160Z,21.10
2018-09-09T10:24:29.580Z,21.25
2018-09-09T10:26:57.849Z,21.78
2018-09-09T10:29:26.133Z,20.72
2018-09-09T10:31:54.432Z,20.69
2018-09-09T10:34:22.767Z,20.85
2018-09-09T10:36:51.050Z,20.99
2018-09-09T10:39:19.342Z,21.28
2018-09-09T10:41:47.617Z,21.48
2018-09-09T10:44:16.943Z,21.17
2018-09-09T10:46:46.395Z,21.24
2018-09-09T10:49:16.681Z,21.23
2018-09-09T10:51:44.961Z,21.22
2018-09-09T10:54:13.233Z,21.79
2018-09-09T10:56:41.541Z,21.32
2018-09-09T10:59:09.817Z,21.76
2018-09-09T11:01:38.156Z,22.35
2018-09-09T11:04:06.432Z,22.16
2018-09-09T11:06:34.811Z,22.39
2018-09-09T11:09:03.417Z,22.42
2018-09-09T11:11:32.776Z,21.72
2018-09-09T11:14:01.033Z,21.61
2018-09-09T11:16:29.355Z,21.60
2018-09-09T11:18:57.636Z,21.79
2018-09-09T11:21:25.978Z,21.82
2018-09-09T11:23:54.237Z,22.33
2018-09-09T11:26:22.524Z,22.68
2018-09-09T11:28:50.881Z,22.19
2018-09-09T11:31:19.169Z,22.65
2018-09-09T11:33:47.577Z,22.78
2018-09-09T11:36:16.487Z,22.52
2018-09-09T11:38:45.185Z,22.71
2018-09-09T11:41:14.515Z,22.22
2018-09-09T11:43:42.797Z,22.26
2018-09-09T11:46:11.065Z,21.95
2018-09-09T11:48:39.433Z,22.36
2018-09-09T11:51:07.718Z,22.44
2018-09-09T11:53:36.014Z,22.98
2018-09-09T11:56:04.322Z,22.91
2018-09-09T11:58:32.627Z,22.70
2018-09-09T12:01:03.051Z,22.25
2018-09-09T12:03:31.406Z,22.62
2018-09-09T12:05:59.693Z,22.37
2018-09-09T12:08:28.105Z,22.25
2018-09-09T12:10:57.441Z,22.25
2018-09-09T12:13:25.761Z,22.62
2018-09-09T12:15:54.049Z,22.76
2018-09-09T12:18:22.421Z,22.74
2018-09-09T12:20:50.705Z,23.06
2018-09-09T12:23:19.074Z,23.06
2018-09-09T12:25:47.322Z,22.93
2018-09-09T12:28:15.605Z,23.13
2018-09-09T12:30:43.917Z,22.72
2018-09-09T12:33:12.529Z,22.85
2018-09-09T12:35:40.793Z,22.57
2018-09-09T12:38:09.056Z,22.45
2018-09-09T12:40:37.415Z,23.00
2018-09-09T12:43:11.046Z,23.09
2018-09-09T12:45:44.786Z,23.06
2018-09-09T12:48:18.457Z,22.83
2018-09-09T12:50:46.741Z,22.62
2018-09-09T12:53:16.044Z,22.63
2018-09-09T12:55:44.365Z,22.90
2018-09-09T12:58:12.664Z,23.07
2018-09-09T13:00:41.081Z,23.59
2018-09-09T13:03:09.441Z,22.79
2018-09-09T13:05:37.845Z,22.56
2018-09-09T13:08:06.422Z,22.54
2018-09-09T13:10:34.941Z,22.74
2018-09-09T13:13:08.327Z,22.61
2018-09-09T13:15:36.787Z,22.76
2018-09-09T13:18:06.312Z,22.84
2018-09-09T13:20:35.629Z,22.92
2018-09-09T13:23:03.909Z,23.18
2018-09-09T13:25:32.233Z,23.37
2018-09-09T13:28:00.521Z,23.05
2018-09-09T13:30:29.841Z,23.22
2018-09-09T13:32:58.137Z,23.16
2018-09-09T13:35:26.426Z,23.12
2018-09-09T13:37:54.722Z,23.40
2018-09-09T13:40:23.072Z,23.92
2018-09-09T13:42:51.375Z,24.52
2018-09-09T13:45:19.670Z,24.22
2018-09-09T13:47:48.003Z,23.19
2018-09-09T13:50:16.286Z,22.75
2018-09-09T13:52:45.589Z,23.39
2018-09-09T13:55:13.861Z,24.59
2018-09-09T13:57:42.241Z,24.50
2018-09-09T14:03:42.348Z,23.94
2018-09-09T14:06:10.702Z,24.04
2018-09-09T14:08:38.980Z,24.56
2018-09-09T14:11:07.361Z,25.30
2018-09-09T14:13:35.661Z,25.26
2018-09-09T14:16:03.926Z,24.54
2018-09-09T14:18:32.243Z,24.21
2018-09-09T14:21:00.493Z,24.15
2018-09-09T14:23:28.826Z,25.30
2018-09-09T14:25:57.118Z,26.39
2018-09-09T14:28:25.409Z,25.44
2018-09-09T14:30:53.669Z,23.68
2018-09-09T14:33:21.973Z,24.15
2018-09-09T14:35:52.281Z,24.36
2018-09-09T14:38:20.637Z,24.11
2018-09-09T14:40:48.913Z,24.05
2018-09-09T14:43:17.231Z,23.79
2018-09-09T14:45:45.497Z,23.58
2018-09-09T14:48:13.840Z,23.86
2018-09-09T14:50:42.122Z,24.65
2018-09-09T14:53:10.603Z,24.66
2018-09-09T14:55:38.817Z,23.84
2018-09-09T14:58:07.168Z,23.99
2018-09-09T15:00:35.461Z,24.00
2018-09-09T15:03:03.826Z,24.06
2018-09-09T15:05:32.146Z,24.57
2018-09-09T15:08:00.421Z,25.93
2018-09-09T15:10:29.813Z,25.79
2018-09-09T15:12:59.192Z,26.46
2018-09-09T15:15:27.506Z,27.55
2018-09-09T15:17:55.789Z,28.90
2018-09-09T15:20:24.159Z,26.28
2018-09-09T15:22:52.462Z,23.42
2018-09-09T15:25:20.761Z,23.36
2018-09-09T15:27:49.049Z,23.00
2018-09-09T15:30:17.349Z,23.05
2018-09-09T15:32:45.614Z,22.89
2018-09-09T15:35:13.947Z,22.62
2018-09-09T15:37:43.009Z,22.67
2018-09-09T15:40:11.477Z,22.75
2018-09-09T15:42:39.757Z,22.72
2018-09-09T15:45:08.121Z,22.48
2018-09-09T15:47:36.389Z,22.61
2018-09-09T15:50:04.698Z,22.65
2018-09-09T15:52:33.052Z,22.51
2018-09-09T15:55:01.316Z,22.39
2018-09-09T15:57:29.675Z,22.38
2018-09-09T15:59:57.939Z,22.43
2018-09-09T16:02:26.260Z,22.33
2018-09-09T16:04:54.887Z,22.69
2018-09-09T16:07:23.370Z,22.77
2018-09-09T16:09:51.493Z,22.81
2018-09-09T16:12:19.774Z,22.65
2018-09-09T16:14:48.073Z,22.77
2018-09-09T16:17:16.393Z,22.73
2018-09-09T16:19:45.689Z,22.72
2018-09-09T16:22:14.010Z,22.44
2018-09-09T16:24:42.315Z,22.59
2018-09-09T16:27:10.605Z,22.58
2018-09-09T16:29:38.853Z,22.65
2018-09-09T16:32:07.136Z,22.52
2018-09-09T16:34:35.397Z,22.47
2018-09-09T16:37:03.692Z,22.49
2018-09-09T16:39:32.054Z,22.39
2018-09-09T16:42:00.241Z,22.31
2018-09-09T16:44:28.701Z,22.20
2018-09-09T16:46:56.967Z,22.31
2018-09-09T16:49:25.277Z,22.26
2018-09-09T16:51:53.544Z,22.36
2018-09-09T16:54:21.818Z,22.40
2018-09-09T16:56:50.225Z,22.43
2018-09-09T16:59:18.534Z,22.37
2018-09-09T17:01:46.857Z,22.41
2018-09-09T17:04:15.137Z,22.45
2018-09-09T17:06:43.412Z,22.51
2018-09-09T17:09:12.281Z,22.63
2018-09-09T17:11:40.937Z,22.62
2018-09-09T17:14:09.500Z,22.73
2018-09-09T17:16:37.901Z,22.74
2018-09-09T17:19:06.193Z,22.80
2018-09-09T17:21:34.454Z,22.78
2018-09-09T17:24:02.754Z,22.78
2018-09-09T17:26:31.045Z,22.66
2018-09-09T17:28:59.329Z,22.49
2018-09-09T17:31:27.609Z,22.40
2018-09-09T17:33:56.041Z,22.18
2018-09-09T17:36:24.406Z,22.03
2018-09-09T17:38:52.761Z,21.77
2018-09-09T17:41:21.137Z,21.59
2018-09-09T17:43:49.389Z,21.54
2018-09-09T17:46:17.689Z,21.47
2018-09-09T17:48:46.030Z,21.36
2018-09-09T17:51:14.308Z,21.21
2018-09-09T17:53:42.569Z,21.58
2018-09-09T17:56:10.869Z,21.14
2018-09-09T17:58:39.159Z,20.95
2018-09-09T18:01:07.473Z,20.83
2018-09-09T18:03:35.753Z,20.74
2018-09-09T18:06:04.074Z,20.65
2018-09-09T18:08:32.374Z,20.56
2018-09-09T18:11:00.712Z,20.53
2018-09-09T18:13:28.961Z,20.48
2018-09-09T18:15:57.321Z,20.50
2018-09-09T18:18:25.886Z,20.46
2018-09-09T18:20:54.272Z,20.43
2018-09-09T18:23:22.521Z,20.31
2018-09-09T18:25:50.794Z,20.32
2018-09-09T18:28:19.105Z,20.34
2018-09-09T18:30:47.454Z,20.33
2018-09-09T18:33:15.749Z,20.32
2018-09-09T18:35:44.671Z,20.32
2018-09-09T18:38:12.977Z,20.35
2018-09-09T18:40:41.298Z,20.35
2018-09-09T18:43:09.744Z,20.33
2018-09-09T18:45:38.163Z,20.27
2018-09-09T18:48:06.459Z,20.22
2018-09-09T18:50:34.737Z,20.14
2018-09-09T18:53:03.020Z,20.04
2018-09-09T18:55:31.273Z,19.96
2018-09-09T18:58:00.713Z,19.93
2018-09-09T19:00:29.177Z,19.78
2018-09-09T19:02:57.525Z,19.73
2018-09-09T19:05:25.805Z,19.61
2018-09-09T19:07:54.097Z,19.51
2018-09-09T19:10:22.525Z,19.36
2018-09-09T19:12:50.813Z,19.30
2018-09-09T19:15:20.215Z,19.28
2018-09-09T19:17:48.489Z,19.20
2018-09-09T19:20:16.801Z,19.18
2018-09-09T19:22:45.069Z,19.11
2018-09-09T19:25:13.373Z,19.03
2018-09-09T19:27:41.650Z,19.02
2018-09-09T19:30:09.974Z,19.03
2018-09-09T19:32:38.249Z,18.98
2018-09-09T19:35:06.542Z,19.03
2018-09-09T19:37:34.850Z,18.87
2018-09-09T19:40:03.252Z,18.79
2018-09-09T19:42:35.604Z,18.75
2018-09-09T19:45:04.951Z,18.70
2018-09-09T19:47:33.287Z,18.60
2018-09-09T19:50:02.297Z,18.57
2018-09-09T19:52:30.598Z,18.54
2018-09-09T19:54:59.061Z,18.57
2018-09-09T19:57:27.364Z,18.54
2018-09-09T19:59:55.915Z,18.55
2018-09-09T20:02:24.597Z,18.59
2018-09-09T20:04:53.232Z,18.55
2018-09-09T20:07:21.492Z,18.55
2018-09-09T20:09:49.770Z,18.54
2018-09-09T20:12:18.073Z,18.54
2018-09-09T20:14:46.714Z,18.53
2018-09-09T20:17:15.415Z,18.56
2018-09-09T20:19:43.658Z,18.60
2018-09-09T20:22:12.585Z,18.58
2018-09-09T20:24:41.254Z,18.59
2018-09-09T20:27:09.581Z,18.57
2018-09-09T20:29:37.893Z,18.58
2018-09-09T20:32:06.202Z,18.60
2018-09-09T20:34:34.536Z,18.61
2018-09-09T20:37:02.862Z,18.61
2018-09-09T20:39:31.134Z,18.65
2018-09-09T20:41:59.461Z,18.90
2018-09-09T20:44:27.793Z,18.74
2018-09-09T20:46:56.113Z,18.69
2018-09-09T20:49:24.390Z,18.58
2018-09-09T20:51:52.694Z,18.61
2018-09-09T20:54:20.968Z,18.67
2018-09-09T20:56:49.297Z,18.72
2018-09-09T20:59:17.581Z,18.75
2018-09-09T21:01:45.873Z,18.77
2018-09-09T21:04:14.236Z,18.80
2018-09-09T21:06:42.525Z,18.83
2018-09-09T21:09:12.165Z,18.86
2018-09-09T21:11:40.450Z,18.92
2018-09-09T21:14:09.221Z,19.23
2018-09-09T21:16:37.587Z,19.04
2018-09-09T21:19:06.833Z,19.05
2018-09-09T21:21:35.666Z,19.02
2018-09-09T21:24:04.011Z,19.06
2018-09-09T21:26:32.423Z,19.33
2018-09-09T21:29:01.149Z,19.18
2018-09-09T21:31:29.557Z,19.17
2018-09-09T21:33:57.897Z,19.17
2018-09-09T21:36:26.317Z,19.19
2018-09-09T21:38:54.680Z,19.22
2018-09-09T21:41:22.953Z,19.11
2018-09-09T21:43:51.259Z,19.04
2018-09-09T21:46:19.582Z,18.97
2018-09-09T21:48:47.897Z,18.84
2018-09-09T21:51:17.201Z,18.83
2018-09-09T21:53:45.624Z,18.79
2018-09-09T21:56:13.941Z,18.75
2018-09-09T21:58:42.293Z,18.75
2018-09-09T22:01:15.706Z,18.78
2018-09-09T22:03:45.180Z,18.83
2018-09-09T22:06:15.653Z,18.79
2018-09-09T22:08:43.997Z,18.76
2018-09-09T22:11:12.333Z,18.72
2018-09-09T22:13:40.658Z,18.73
2018-09-09T22:16:09.014Z,18.66
2018-09-09T22:18:37.525Z,18.63
2018-09-09T22:21:06.033Z,18.65
2018-09-09T22:23:34.361Z,18.61
2018-09-09T22:26:03.617Z,18.56
2018-09-09T22:28:31.919Z,18.51
2018-09-09T22:31:00.229Z,18.49
2018-09-09T22:33:28.764Z,18.43
2018-09-09T22:35:57.066Z,18.50
2018-09-09T22:38:26.517Z,18.49
2018-09-09T22:40:54.801Z,18.51
2018-09-09T22:43:23.057Z,18.51
2018-09-09T22:45:55.609Z,18.49
2018-09-09T22:48:23.902Z,18.47
2018-09-09T22:50:52.864Z,18.44
2018-09-09T22:53:21.236Z,18.51
2018-09-09T22:55:49.604Z,18.50
2018-09-09T22:58:19.389Z,18.44
2018-09-09T23:00:47.653Z,18.40
2018-09-09T23:03:16.005Z,18.35
2018-09-09T23:05:44.281Z,18.20
2018-09-09T23:08:12.743Z,18.13
2018-09-09T23:10:41.343Z,18.13
2018-09-09T23:13:09.677Z,18.10
2018-09-09T23:15:37.997Z,18.08
2018-09-09T23:18:06.331Z,17.96
2018-09-09T23:20:35.617Z,18.01
2018-09-09T23:23:05.009Z,17.98
2018-09-09T23:25:33.305Z,17.95
2018-09-09T23:28:01.656Z,17.99
2018-09-09T23:30:29.950Z,17.94
2018-09-09T23:32:58.409Z,17.88
2018-09-09T23:35:26.683Z,17.84
2018-09-09T23:37:55.007Z,17.90
2018-09-09T23:40:23.288Z,17.89
2018-09-09T23:42:51.605Z,17.89
2018-09-09T23:45:19.909Z,17.93
2018-09-09T23:47:48.186Z,18.04
2018-09-09T23:50:16.501Z,18.04
2018-09-09T23:52:44.775Z,18.17
2018-09-09T23:55:13.076Z,18.13
2018-09-09T23:57:41.347Z,18.24
